Etusivu
METAR-TAF:

METAR-TAF

Lentoasemat :

Örnsköldsvikin lentoasema

Örnsköldsvik, Ruotsi

Leveyspiiri: 63-24N, Pituuspiiri: 018-58E, korkeus merenpinnasta: 103 m

Tämänhetkinen sää

Tämä raportti tehtiin 31 minuuttia sitten, kello 12.50 UTC
Tuuli 13 kn lännestä
Lämpötila 10°C
Kosteus 53%
Ilmanpaine 1013 hPa
Näkyvyys 10 km tai enemmän
ei pilviä alle 1500 m:ssä eikä cumulonimbus-pilviä

METAR: ESNO 251250Z 26013KT CAVOK 10/01 Q1013

Aika: 15:21 (13:21 UTC)

Sääennuste

Tämä raportti tehtiin 1 tunti ja 51 minuuttia sitten, kello 11.30 UTC
Ennuste voimassa 25. päivästä klo 12 UTC - 25. päivään klo 21 UTC
Tuuli 13 kn lännestä
Näkyvyys 10 km tai enemmän
ei pilviä alle 1500 m:ssä eikä cumulonimbus-pilviä

TAF: ESNO 251130Z 2512/2521 27013KT CAVOK

Säähavainnot ja -ennusteet yli 4000 lentoasemalta (METAR- ja TAF-raportit).

Käytössä olevat sääasemat on merkitty karttaan keltaisilla ja punaisilla pisteillä.

Aseta hiiri pisteen päälle nähdäksesi sääaseman nimen.

Klikkaa sitten nähdäksesi säähavainnot ja -ennusteet.

Kartan vaihtaminen: klikkaa mustalla rastilla varustettuja vihreitä pisteitä, niin voit zoomata sisään; viivalla varustettua vihreää pistettä, niin voit zoomata ulos tai vihreitä nuolia, niin pääset viereisille kartoille.


METAR-TAF: